sensor_id;sensor_type;location;lat;lon;timestamp;temperature;humidity
4366;DHT22;2196;47.422;9.656;2023-11-19T00:01:05;6.10;99.90
4366;DHT22;2196;47.422;9.656;2023-11-19T00:03:32;6.20;99.90
4366;DHT22;2196;47.422;9.656;2023-11-19T00:06:02;6.20;99.90
4366;DHT22;2196;47.422;9.656;2023-11-19T00:08:30;6.20;99.90
4366;DHT22;2196;47.422;9.656;2023-11-19T00:10:56;6.20;99.90
4366;DHT22;2196;47.422;9.656;2023-11-19T00:13:23;6.10;99.90
4366;DHT22;2196;47.422;9.656;2023-11-19T00:15:51;6.20;99.90
4366;DHT22;2196;47.422;9.656;2023-11-19T00:18:19;6.30;99.90
4366;DHT22;2196;47.422;9.656;2023-11-19T00:20:46;6.20;99.90
4366;DHT22;2196;47.422;9.656;2023-11-19T00:23:14;6.20;99.90
4366;DHT22;2196;47.422;9.656;2023-11-19T00:25:41;6.20;99.90
4366;DHT22;2196;47.422;9.656;2023-11-19T00:28:08;6.20;99.90
4366;DHT22;2196;47.422;9.656;2023-11-19T00:30:35;6.30;99.90
4366;DHT22;2196;47.422;9.656;2023-11-19T00:33:02;6.40;99.90
4366;DHT22;2196;47.422;9.656;2023-11-19T00:35:29;6.40;99.90
4366;DHT22;2196;47.422;9.656;2023-11-19T00:37:57;6.30;99.90
4366;DHT22;2196;47.422;9.656;2023-11-19T00:40:26;6.30;99.90
4366;DHT22;2196;47.422;9.656;2023-11-19T00:42:53;6.30;99.90
4366;DHT22;2196;47.422;9.656;2023-11-19T00:45:20;6.30;99.90
4366;DHT22;2196;47.422;9.656;2023-11-19T00:47:46;6.40;99.90
4366;DHT22;2196;47.422;9.656;2023-11-19T00:50:13;6.40;99.90
4366;DHT22;2196;47.422;9.656;2023-11-19T00:52:41;6.40;99.90
4366;DHT22;2196;47.422;9.656;2023-11-19T00:55:08;6.40;99.90
4366;DHT22;2196;47.422;9.656;2023-11-19T00:57:38;6.40;99.90
4366;DHT22;2196;47.422;9.656;2023-11-19T01:00:06;6.40;99.90
4366;DHT22;2196;47.422;9.656;2023-11-19T01:02:44;6.30;99.90
4366;DHT22;2196;47.422;9.656;2023-11-19T01:05:11;6.30;99.90
4366;DHT22;2196;47.422;9.656;2023-11-19T01:07:40;6.40;99.90
4366;DHT22;2196;47.422;9.656;2023-11-19T01:10:07;6.40;99.90
4366;DHT22;2196;47.422;9.656;2023-11-19T01:12:35;6.40;99.90
4366;DHT22;2196;47.422;9.656;2023-11-19T01:15:05;6.40;99.90
4366;DHT22;2196;47.422;9.656;2023-11-19T01:17:32;6.40;99.90
4366;DHT22;2196;47.422;9.656;2023-11-19T01:20:00;6.40;99.90
4366;DHT22;2196;47.422;9.656;2023-11-19T01:22:27;6.40;99.90
4366;DHT22;2196;47.422;9.656;2023-11-19T01:24:54;6.40;99.90
4366;DHT22;2196;47.422;9.656;2023-11-19T01:27:21;6.40;99.90
4366;DHT22;2196;47.422;9.656;2023-11-19T01:29:48;6.40;99.90
4366;DHT22;2196;47.422;9.656;2023-11-19T01:32:17;6.40;99.90
4366;DHT22;2196;47.422;9.656;2023-11-19T01:34:43;6.50;99.90
4366;DHT22;2196;47.422;9.656;2023-11-19T01:37:10;6.50;99.90
4366;DHT22;2196;47.422;9.656;2023-11-19T01:39:43;6.40;99.90
4366;DHT22;2196;47.422;9.656;2023-11-19T01:42:10;6.50;99.90
4366;DHT22;2196;47.422;9.656;2023-11-19T01:44:37;6.50;99.90
4366;DHT22;2196;47.422;9.656;2023-11-19T01:49:33;6.40;99.90
4366;DHT22;2196;47.422;9.656;2023-11-19T01:52:00;6.50;99.90
4366;DHT22;2196;47.422;9.656;2023-11-19T01:54:28;6.50;99.90
4366;DHT22;2196;47.422;9.656;2023-11-19T01:59:24;6.50;99.90
4366;DHT22;2196;47.422;9.656;2023-11-19T02:01:53;6.60;99.90
4366;DHT22;2196;47.422;9.656;2023-11-19T02:04:21;6.60;99.90
4366;DHT22;2196;47.422;9.656;2023-11-19T02:06:50;6.60;99.90
4366;DHT22;2196;47.422;9.656;2023-11-19T02:09:18;7.00;99.90
4366;DHT22;2196;47.422;9.656;2023-11-19T02:14:17;6.60;99.90
4366;DHT22;2196;47.422;9.656;2023-11-19T02:16:44;7.20;99.90
4366;DHT22;2196;47.422;9.656;2023-11-19T02:19:11;6.70;99.90
4366;DHT22;2196;47.422;9.656;2023-11-19T02:21:38;6.70;99.90
4366;DHT22;2196;47.422;9.656;2023-11-19T02:24:10;6.50;99.90
4366;DHT22;2196;47.422;9.656;2023-11-19T02:26:41;6.80;99.90
4366;DHT22;2196;47.422;9.656;2023-11-19T02:29:12;6.80;99.90
4366;DHT22;2196;47.422;9.656;2023-11-19T02:31:39;6.80;99.90
4366;DHT22;2196;47.422;9.656;2023-11-19T02:34:06;6.60;99.90
4366;DHT22;2196;47.422;9.656;2023-11-19T02:36:33;6.60;99.90
4366;DHT22;2196;47.422;9.656;2023-11-19T02:39:00;6.70;99.90
4366;DHT22;2196;47.422;9.656;2023-11-19T02:41:27;6.60;99.90
4366;DHT22;2196;47.422;9.656;2023-11-19T02:43:55;6.60;99.90
4366;DHT22;2196;47.422;9.656;2023-11-19T02:46:23;6.70;99.90
4366;DHT22;2196;47.422;9.656;2023-11-19T02:48:50;6.70;99.90
4366;DHT22;2196;47.422;9.656;2023-11-19T02:51:17;6.80;99.90
4366;DHT22;2196;47.422;9.656;2023-11-19T02:53:44;6.70;99.90
4366;DHT22;2196;47.422;9.656;2023-11-19T02:56:13;6.80;99.90
4366;DHT22;2196;47.422;9.656;2023-11-19T02:58:46;6.80;99.90
4366;DHT22;2196;47.422;9.656;2023-11-19T03:01:14;6.80;99.90
4366;DHT22;2196;47.422;9.656;2023-11-19T03:03:51;6.80;99.90
4366;DHT22;2196;47.422;9.656;2023-11-19T03:06:20;7.00;99.90
4366;DHT22;2196;47.422;9.656;2023-11-19T03:08:48;7.00;99.90
4366;DHT22;2196;47.422;9.656;2023-11-19T03:11:15;7.00;99.90
4366;DHT22;2196;47.422;9.656;2023-11-19T03:13:42;7.00;99.90
4366;DHT22;2196;47.422;9.656;2023-11-19T03:16:09;6.80;99.90
4366;DHT22;2196;47.422;9.656;2023-11-19T03:18:37;7.00;99.90
4366;DHT22;2196;47.422;9.656;2023-11-19T03:21:06;6.90;99.90
4366;DHT22;2196;47.422;9.656;2023-11-19T03:23:33;7.10;99.90
4366;DHT22;2196;47.422;9.656;2023-11-19T03:26:00;7.20;99.90
4366;DHT22;2196;47.422;9.656;2023-11-19T03:28:31;7.10;99.90
4366;DHT22;2196;47.422;9.656;2023-11-19T03:30:58;7.10;99.90
4366;DHT22;2196;47.422;9.656;2023-11-19T03:33:25;7.10;99.90
4366;DHT22;2196;47.422;9.656;2023-11-19T03:35:53;7.00;99.90
4366;DHT22;2196;47.422;9.656;2023-11-19T03:38:23;7.00;99.90
4366;DHT22;2196;47.422;9.656;2023-11-19T03:40:50;7.00;99.90
4366;DHT22;2196;47.422;9.656;2023-11-19T03:43:17;7.00;99.90
4366;DHT22;2196;47.422;9.656;2023-11-19T03:45:45;6.60;99.90
4366;DHT22;2196;47.422;9.656;2023-11-19T03:48:12;7.10;99.90
4366;DHT22;2196;47.422;9.656;2023-11-19T03:50:41;7.00;99.90
4366;DHT22;2196;47.422;9.656;2023-11-19T03:53:08;7.00;99.90
4366;DHT22;2196;47.422;9.656;2023-11-19T03:55:36;7.00;99.90
4366;DHT22;2196;47.422;9.656;2023-11-19T03:58:03;6.90;99.90
4366;DHT22;2196;47.422;9.656;2023-11-19T04:00:30;7.00;99.90
4366;DHT22;2196;47.422;9.656;2023-11-19T04:02:57;6.90;99.90
4366;DHT22;2196;47.422;9.656;2023-11-19T04:05:24;6.80;99.90
4366;DHT22;2196;47.422;9.656;2023-11-19T04:07:51;6.80;99.90
4366;DHT22;2196;47.422;9.656;2023-11-19T04:10:18;6.90;99.90
4366;DHT22;2196;47.422;9.656;2023-11-19T04:12:47;6.90;99.90
4366;DHT22;2196;47.422;9.656;2023-11-19T04:15:14;6.90;99.90
4366;DHT22;2196;47.422;9.656;2023-11-19T04:17:41;6.90;99.90
4366;DHT22;2196;47.422;9.656;2023-11-19T04:20:09;6.80;99.90
4366;DHT22;2196;47.422;9.656;2023-11-19T04:22:38;6.80;99.90
4366;DHT22;2196;47.422;9.656;2023-11-19T04:25:07;6.80;99.90
4366;DHT22;2196;47.422;9.656;2023-11-19T04:27:34;6.80;99.90
4366;DHT22;2196;47.422;9.656;2023-11-19T04:30:02;6.80;99.90
4366;DHT22;2196;47.422;9.656;2023-11-19T04:32:29;6.80;99.90
4366;DHT22;2196;47.422;9.656;2023-11-19T04:34:56;6.80;99.90
4366;DHT22;2196;47.422;9.656;2023-11-19T04:37:23;6.80;99.90
4366;DHT22;2196;47.422;9.656;2023-11-19T04:39:50;6.70;99.90
4366;DHT22;2196;47.422;9.656;2023-11-19T04:42:17;6.70;99.90
4366;DHT22;2196;47.422;9.656;2023-11-19T04:47:13;6.70;99.90
4366;DHT22;2196;47.422;9.656;2023-11-19T04:49:41;6.80;99.90
4366;DHT22;2196;47.422;9.656;2023-11-19T04:52:09;6.70;99.90
4366;DHT22;2196;47.422;9.656;2023-11-19T04:54:41;6.70;99.90
4366;DHT22;2196;47.422;9.656;2023-11-19T04:57:08;6.80;99.90
4366;DHT22;2196;47.422;9.656;2023-11-19T04:59:36;6.70;99.90
4366;DHT22;2196;47.422;9.656;2023-11-19T05:02:03;6.70;99.90
4366;DHT22;2196;47.422;9.656;2023-11-19T05:04:32;6.60;99.90
4366;DHT22;2196;47.422;9.656;2023-11-19T05:06:59;6.60;99.90
4366;DHT22;2196;47.422;9.656;2023-11-19T05:09:26;6.70;99.90
4366;DHT22;2196;47.422;9.656;2023-11-19T05:11:53;6.70;99.90
4366;DHT22;2196;47.422;9.656;2023-11-19T05:14:20;6.70;99.90
4366;DHT22;2196;47.422;9.656;2023-11-19T05:16:47;6.70;99.90
4366;DHT22;2196;47.422;9.656;2023-11-19T05:19:14;6.60;99.90
4366;DHT22;2196;47.422;9.656;2023-11-19T05:21:43;6.60;99.90
4366;DHT22;2196;47.422;9.656;2023-11-19T05:24:10;6.70;99.90
4366;DHT22;2196;47.422;9.656;2023-11-19T05:26:38;6.60;99.90
4366;DHT22;2196;47.422;9.656;2023-11-19T05:29:06;6.70;99.90
4366;DHT22;2196;47.422;9.656;2023-11-19T05:31:34;6.70;99.90
4366;DHT22;2196;47.422;9.656;2023-11-19T05:34:01;6.70;99.90
4366;DHT22;2196;47.422;9.656;2023-11-19T05:36:28;6.70;99.90
4366;DHT22;2196;47.422;9.656;2023-11-19T05:38:56;6.80;99.90
4366;DHT22;2196;47.422;9.656;2023-11-19T05:41:23;6.70;99.90
4366;DHT22;2196;47.422;9.656;2023-11-19T05:43:50;6.70;99.90
4366;DHT22;2196;47.422;9.656;2023-11-19T05:46:17;6.70;99.90
4366;DHT22;2196;47.422;9.656;2023-11-19T05:48:44;6.70;99.90
4366;DHT22;2196;47.422;9.656;2023-11-19T05:51:12;6.80;99.90
4366;DHT22;2196;47.422;9.656;2023-11-19T05:53:40;6.90;99.90
4366;DHT22;2196;47.422;9.656;2023-11-19T05:56:09;6.80;99.90
4366;DHT22;2196;47.422;9.656;2023-11-19T05:58:36;6.80;99.90
4366;DHT22;2196;47.422;9.656;2023-11-19T06:01:03;6.70;99.90
4366;DHT22;2196;47.422;9.656;2023-11-19T06:03:32;6.80;99.90
4366;DHT22;2196;47.422;9.656;2023-11-19T06:05:59;6.70;99.90
4366;DHT22;2196;47.422;9.656;2023-11-19T06:08:26;6.90;99.90
4366;DHT22;2196;47.422;9.656;2023-11-19T06:10:53;6.90;99.90
4366;DHT22;2196;47.422;9.656;2023-11-19T06:13:22;6.80;99.90
4366;DHT22;2196;47.422;9.656;2023-11-19T06:15:49;6.80;99.90
4366;DHT22;2196;47.422;9.656;2023-11-19T06:18:17;6.80;99.90
4366;DHT22;2196;47.422;9.656;2023-11-19T06:20:45;7.60;99.90
4366;DHT22;2196;47.422;9.656;2023-11-19T06:23:12;6.70;99.90
4366;DHT22;2196;47.422;9.656;2023-11-19T06:25:39;6.80;99.90
4366;DHT22;2196;47.422;9.656;2023-11-19T06:28:06;7.00;99.90
4366;DHT22;2196;47.422;9.656;2023-11-19T06:30:35;6.70;99.90
4366;DHT22;2196;47.422;9.656;2023-11-19T06:33:02;6.70;99.90
4366;DHT22;2196;47.422;9.656;2023-11-19T06:35:30;6.70;99.90
4366;DHT22;2196;47.422;9.656;2023-11-19T06:38:02;6.60;99.90
4366;DHT22;2196;47.422;9.656;2023-11-19T06:40:29;6.60;99.90
4366;DHT22;2196;47.422;9.656;2023-11-19T06:42:56;6.70;99.90
4366;DHT22;2196;47.422;9.656;2023-11-19T06:45:24;6.70;99.90
4366;DHT22;2196;47.422;9.656;2023-11-19T06:47:52;6.80;99.90
4366;DHT22;2196;47.422;9.656;2023-11-19T06:50:19;6.80;99.90
4366;DHT22;2196;47.422;9.656;2023-11-19T06:52:46;6.70;99.90
4366;DHT22;2196;47.422;9.656;2023-11-19T06:55:14;6.70;99.90
4366;DHT22;2196;47.422;9.656;2023-11-19T06:57:41;6.70;99.90
4366;DHT22;2196;47.422;9.656;2023-11-19T07:00:09;6.70;99.90
4366;DHT22;2196;47.422;9.656;2023-11-19T07:02:37;6.70;99.90
4366;DHT22;2196;47.422;9.656;2023-11-19T07:05:05;6.70;99.90
4366;DHT22;2196;47.422;9.656;2023-11-19T07:07:33;6.70;99.90
4366;DHT22;2196;47.422;9.656;2023-11-19T07:10:01;6.80;99.90
4366;DHT22;2196;47.422;9.656;2023-11-19T07:12:30;6.70;99.90
4366;DHT22;2196;47.422;9.656;2023-11-19T07:14:57;6.70;99.90
4366;DHT22;2196;47.422;9.656;2023-11-19T07:17:24;6.90;99.90
4366;DHT22;2196;47.422;9.656;2023-11-19T07:19:51;6.70;99.90
4366;DHT22;2196;47.422;9.656;2023-11-19T07:22:19;6.70;99.90
4366;DHT22;2196;47.422;9.656;2023-11-19T07:24:46;6.80;99.90
4366;DHT22;2196;47.422;9.656;2023-11-19T07:27:13;6.80;99.90
4366;DHT22;2196;47.422;9.656;2023-11-19T07:29:43;6.80;99.90
4366;DHT22;2196;47.422;9.656;2023-11-19T07:32:10;6.80;99.90
4366;DHT22;2196;47.422;9.656;2023-11-19T07:34:37;6.70;99.90
4366;DHT22;2196;47.422;9.656;2023-11-19T07:37:04;6.80;99.90
4366;DHT22;2196;47.422;9.656;2023-11-19T07:39:32;6.80;99.90
4366;DHT22;2196;47.422;9.656;2023-11-19T07:42:00;6.80;99.90
4366;DHT22;2196;47.422;9.656;2023-11-19T07:44:27;6.80;99.90
4366;DHT22;2196;47.422;9.656;2023-11-19T07:46:54;6.80;99.90
4366;DHT22;2196;47.422;9.656;2023-11-19T07:49:21;6.80;99.90
4366;DHT22;2196;47.422;9.656;2023-11-19T07:51:48;6.80;99.90
4366;DHT22;2196;47.422;9.656;2023-11-19T07:54:15;6.90;99.90
4366;DHT22;2196;47.422;9.656;2023-11-19T07:56:43;6.90;99.90
4366;DHT22;2196;47.422;9.656;2023-11-19T07:59:10;6.90;99.90
4366;DHT22;2196;47.422;9.656;2023-11-19T08:01:37;7.00;99.90
4366;DHT22;2196;47.422;9.656;2023-11-19T08:04:04;7.00;99.90
4366;DHT22;2196;47.422;9.656;2023-11-19T08:06:33;6.90;99.90
4366;DHT22;2196;47.422;9.656;2023-11-19T08:09:00;7.00;99.90
4366;DHT22;2196;47.422;9.656;2023-11-19T08:11:27;7.10;99.90
4366;DHT22;2196;47.422;9.656;2023-11-19T08:13:55;7.10;99.90
4366;DHT22;2196;47.422;9.656;2023-11-19T08:16:22;7.10;99.90
4366;DHT22;2196;47.422;9.656;2023-11-19T08:18:49;7.40;99.90
4366;DHT22;2196;47.422;9.656;2023-11-19T08:21:16;7.40;99.90
4366;DHT22;2196;47.422;9.656;2023-11-19T08:23:43;7.50;99.90
4366;DHT22;2196;47.422;9.656;2023-11-19T08:26:10;7.60;99.90
4366;DHT22;2196;47.422;9.656;2023-11-19T08:28:37;7.60;99.90
4366;DHT22;2196;47.422;9.656;2023-11-19T08:31:06;7.60;99.90
4366;DHT22;2196;47.422;9.656;2023-11-19T08:33:33;7.70;99.90
4366;DHT22;2196;47.422;9.656;2023-11-19T08:36:00;7.70;99.90
4366;DHT22;2196;47.422;9.656;2023-11-19T08:38:30;7.70;99.90
4366;DHT22;2196;47.422;9.656;2023-11-19T08:40:57;7.60;99.90
4366;DHT22;2196;47.422;9.656;2023-11-19T08:43:25;7.60;99.90
4366;DHT22;2196;47.422;9.656;2023-11-19T08:45:52;7.60;99.90
4366;DHT22;2196;47.422;9.656;2023-11-19T08:48:20;7.70;99.90
4366;DHT22;2196;47.422;9.656;2023-11-19T08:50:47;7.80;99.90
4366;DHT22;2196;47.422;9.656;2023-11-19T08:53:14;7.90;99.90
4366;DHT22;2196;47.422;9.656;2023-11-19T08:55:41;8.00;99.90
4366;DHT22;2196;47.422;9.656;2023-11-19T08:58:08;8.00;99.90
4366;DHT22;2196;47.422;9.656;2023-11-19T09:00:35;8.10;99.90
4366;DHT22;2196;47.422;9.656;2023-11-19T09:03:02;8.20;99.90
4366;DHT22;2196;47.422;9.656;2023-11-19T09:05:31;8.40;99.90
4366;DHT22;2196;47.422;9.656;2023-11-19T09:07:58;8.50;99.90
4366;DHT22;2196;47.422;9.656;2023-11-19T09:10:25;8.70;99.90
4366;DHT22;2196;47.422;9.656;2023-11-19T09:12:52;8.80;99.90
4366;DHT22;2196;47.422;9.656;2023-11-19T09:15:19;8.90;99.90
4366;DHT22;2196;47.422;9.656;2023-11-19T09:17:46;9.00;99.90
4366;DHT22;2196;47.422;9.656;2023-11-19T09:20:13;9.00;99.90
4366;DHT22;2196;47.422;9.656;2023-11-19T09:22:42;9.10;99.90
4366;DHT22;2196;47.422;9.656;2023-11-19T09:25:09;9.10;99.90
4366;DHT22;2196;47.422;9.656;2023-11-19T09:27:36;9.20;99.90
4366;DHT22;2196;47.422;9.656;2023-11-19T09:30:04;9.10;99.90
4366;DHT22;2196;47.422;9.656;2023-11-19T09:32:31;9.20;99.90
4366;DHT22;2196;47.422;9.656;2023-11-19T09:34:58;9.20;99.90
4366;DHT22;2196;47.422;9.656;2023-11-19T09:37:26;9.30;99.90
4366;DHT22;2196;47.422;9.656;2023-11-19T09:39:54;9.40;99.90
4366;DHT22;2196;47.422;9.656;2023-11-19T09:42:23;9.50;99.90
4366;DHT22;2196;47.422;9.656;2023-11-19T09:44:51;9.50;99.90
4366;DHT22;2196;47.422;9.656;2023-11-19T09:47:19;9.60;99.90
4366;DHT22;2196;47.422;9.656;2023-11-19T09:49:46;9.60;99.90
4366;DHT22;2196;47.422;9.656;2023-11-19T09:52:14;9.60;99.90
4366;DHT22;2196;47.422;9.656;2023-11-19T09:54:41;9.60;99.90
4366;DHT22;2196;47.422;9.656;2023-11-19T09:57:10;9.60;99.90
4366;DHT22;2196;47.422;9.656;2023-11-19T09:59:39;9.50;99.90
4366;DHT22;2196;47.422;9.656;2023-11-19T10:02:07;9.50;99.90
4366;DHT22;2196;47.422;9.656;2023-11-19T10:04:35;9.50;99.90
4366;DHT22;2196;47.422;9.656;2023-11-19T10:07:03;9.50;99.90
4366;DHT22;2196;47.422;9.656;2023-11-19T10:09:30;9.50;99.90
4366;DHT22;2196;47.422;9.656;2023-11-19T10:11:57;9.50;99.90
4366;DHT22;2196;47.422;9.656;2023-11-19T10:14:25;9.50;99.90
4366;DHT22;2196;47.422;9.656;2023-11-19T10:16:54;9.50;99.90
4366;DHT22;2196;47.422;9.656;2023-11-19T10:19:22;9.50;99.90
4366;DHT22;2196;47.422;9.656;2023-11-19T10:21:49;9.50;99.90
4366;DHT22;2196;47.422;9.656;2023-11-19T10:24:15;9.50;99.90
4366;DHT22;2196;47.422;9.656;2023-11-19T10:26:42;9.60;99.90
4366;DHT22;2196;47.422;9.656;2023-11-19T10:29:09;9.70;99.90
4366;DHT22;2196;47.422;9.656;2023-11-19T10:31:40;9.70;99.90
4366;DHT22;2196;47.422;9.656;2023-11-19T10:34:24;9.90;99.90
4366;DHT22;2196;47.422;9.656;2023-11-19T10:36:52;9.80;99.90
4366;DHT22;2196;47.422;9.656;2023-11-19T10:39:19;9.70;99.90
4366;DHT22;2196;47.422;9.656;2023-11-19T10:41:46;9.60;99.90
4366;DHT22;2196;47.422;9.656;2023-11-19T10:44:31;9.60;99.90
4366;DHT22;2196;47.422;9.656;2023-11-19T10:47:00;9.60;99.90
4366;DHT22;2196;47.422;9.656;2023-11-19T10:49:27;9.60;99.90
4366;DHT22;2196;47.422;9.656;2023-11-19T10:51:55;9.60;99.90
4366;DHT22;2196;47.422;9.656;2023-11-19T10:54:24;9.80;99.90
4366;DHT22;2196;47.422;9.656;2023-11-19T10:56:55;9.90;99.90
4366;DHT22;2196;47.422;9.656;2023-11-19T10:59:24;9.90;99.90
4366;DHT22;2196;47.422;9.656;2023-11-19T11:01:53;9.80;99.90
4366;DHT22;2196;47.422;9.656;2023-11-19T11:04:24;9.80;99.90
4366;DHT22;2196;47.422;9.656;2023-11-19T11:06:54;9.80;99.90
4366;DHT22;2196;47.422;9.656;2023-11-19T11:09:26;9.90;99.90
4366;DHT22;2196;47.422;9.656;2023-11-19T11:11:54;10.10;99.90
4366;DHT22;2196;47.422;9.656;2023-11-19T11:14:24;10.10;99.90
4366;DHT22;2196;47.422;9.656;2023-11-19T11:16:53;10.10;99.90
4366;DHT22;2196;47.422;9.656;2023-11-19T11:19:20;10.00;99.90
4366;DHT22;2196;47.422;9.656;2023-11-19T11:21:53;9.90;99.90
4366;DHT22;2196;47.422;9.656;2023-11-19T11:24:36;9.80;99.90
4366;DHT22;2196;47.422;9.656;2023-11-19T11:30:11;9.80;99.90
4366;DHT22;2196;47.422;9.656;2023-11-19T11:32:44;9.80;99.90
4366;DHT22;2196;47.422;9.656;2023-11-19T11:35:27;10.00;99.90
4366;DHT22;2196;47.422;9.656;2023-11-19T11:38:03;9.90;99.90
4366;DHT22;2196;47.422;9.656;2023-11-19T11:40:30;9.90;99.90
4366;DHT22;2196;47.422;9.656;2023-11-19T11:42:57;10.50;99.90
4366;DHT22;2196;47.422;9.656;2023-11-19T11:45:39;9.80;99.90
4366;DHT22;2196;47.422;9.656;2023-11-19T11:48:12;9.70;99.90
4366;DHT22;2196;47.422;9.656;2023-11-19T11:50:49;9.80;99.90
4366;DHT22;2196;47.422;9.656;2023-11-19T11:53:19;9.80;99.90
4366;DHT22;2196;47.422;9.656;2023-11-19T11:56:00;9.80;99.90
4366;DHT22;2196;47.422;9.656;2023-11-19T11:58:32;9.80;99.90
4366;DHT22;2196;47.422;9.656;2023-11-19T12:01:02;9.90;99.90
4366;DHT22;2196;47.422;9.656;2023-11-19T12:03:31;10.00;99.90
4366;DHT22;2196;47.422;9.656;2023-11-19T12:05:58;10.30;99.90
4366;DHT22;2196;47.422;9.656;2023-11-19T12:08:28;10.20;99.90
4366;DHT22;2196;47.422;9.656;2023-11-19T12:10:58;10.30;99.90
4366;DHT22;2196;47.422;9.656;2023-11-19T12:13:42;10.40;99.90
4366;DHT22;2196;47.422;9.656;2023-11-19T12:16:11;10.50;99.90
4366;DHT22;2196;47.422;9.656;2023-11-19T12:18:41;10.70;99.90
4366;DHT22;2196;47.422;9.656;2023-11-19T12:21:08;10.80;99.90
4366;DHT22;2196;47.422;9.656;2023-11-19T12:23:46;10.80;99.90
4366;DHT22;2196;47.422;9.656;2023-11-19T12:26:32;10.90;99.90
4366;DHT22;2196;47.422;9.656;2023-11-19T12:29:02;10.90;99.90
4366;DHT22;2196;47.422;9.656;2023-11-19T12:31:33;11.00;99.90
4366;DHT22;2196;47.422;9.656;2023-11-19T12:34:08;11.10;99.90
4366;DHT22;2196;47.422;9.656;2023-11-19T12:36:40;11.10;99.90
4366;DHT22;2196;47.422;9.656;2023-11-19T12:39:09;11.10;99.90
4366;DHT22;2196;47.422;9.656;2023-11-19T12:41:52;11.10;99.90
4366;DHT22;2196;47.422;9.656;2023-11-19T12:44:19;11.00;99.90
4366;DHT22;2196;47.422;9.656;2023-11-19T12:46:45;10.90;99.90
4366;DHT22;2196;47.422;9.656;2023-11-19T12:49:12;10.80;99.90
4366;DHT22;2196;47.422;9.656;2023-11-19T12:51:39;10.80;99.90
4366;DHT22;2196;47.422;9.656;2023-11-19T12:54:06;10.60;99.90
4366;DHT22;2196;47.422;9.656;2023-11-19T12:56:38;10.60;99.90
4366;DHT22;2196;47.422;9.656;2023-11-19T12:59:10;10.50;99.90
4366;DHT22;2196;47.422;9.656;2023-11-19T13:01:38;10.50;99.90
4366;DHT22;2196;47.422;9.656;2023-11-19T13:04:16;10.50;99.90
4366;DHT22;2196;47.422;9.656;2023-11-19T13:06:45;10.50;99.90
4366;DHT22;2196;47.422;9.656;2023-11-19T13:09:22;10.60;99.90
4366;DHT22;2196;47.422;9.656;2023-11-19T13:11:50;10.70;99.90
4366;DHT22;2196;47.422;9.656;2023-11-19T13:14:18;10.80;99.90
4366;DHT22;2196;47.422;9.656;2023-11-19T13:16:45;10.70;99.90
4366;DHT22;2196;47.422;9.656;2023-11-19T13:19:12;10.70;99.90
4366;DHT22;2196;47.422;9.656;2023-11-19T13:21:39;10.70;99.90
4366;DHT22;2196;47.422;9.656;2023-11-19T13:24:06;10.70;99.90
4366;DHT22;2196;47.422;9.656;2023-11-19T13:26:38;10.70;99.90
4366;DHT22;2196;47.422;9.656;2023-11-19T13:29:06;10.70;99.90
4366;DHT22;2196;47.422;9.656;2023-11-19T13:31:37;10.70;99.90
4366;DHT22;2196;47.422;9.656;2023-11-19T13:34:04;10.70;99.90
4366;DHT22;2196;47.422;9.656;2023-11-19T13:36:33;10.70;99.90
4366;DHT22;2196;47.422;9.656;2023-11-19T13:39:00;10.80;99.90
4366;DHT22;2196;47.422;9.656;2023-11-19T13:41:28;10.80;99.90
4366;DHT22;2196;47.422;9.656;2023-11-19T13:43:55;10.80;99.90
4366;DHT22;2196;47.422;9.656;2023-11-19T13:46:23;10.80;99.90
4366;DHT22;2196;47.422;9.656;2023-11-19T13:48:50;10.90;99.90
4366;DHT22;2196;47.422;9.656;2023-11-19T13:51:17;11.00;99.90
4366;DHT22;2196;47.422;9.656;2023-11-19T13:53:45;11.10;99.90
4366;DHT22;2196;47.422;9.656;2023-11-19T13:56:12;11.10;99.90
4366;DHT22;2196;47.422;9.656;2023-11-19T13:58:39;11.20;99.90
4366;DHT22;2196;47.422;9.656;2023-11-19T14:01:06;11.20;99.90
4366;DHT22;2196;47.422;9.656;2023-11-19T14:03:35;11.30;99.90
4366;DHT22;2196;47.422;9.656;2023-11-19T14:06:02;11.30;99.90
4366;DHT22;2196;47.422;9.656;2023-11-19T14:08:29;11.10;99.90
4366;DHT22;2196;47.422;9.656;2023-11-19T14:10:56;11.30;99.90
4366;DHT22;2196;47.422;9.656;2023-11-19T14:13:24;11.20;99.90
4366;DHT22;2196;47.422;9.656;2023-11-19T14:15:51;11.20;99.90
4366;DHT22;2196;47.422;9.656;2023-11-19T14:18:18;11.10;99.90
4366;DHT22;2196;47.422;9.656;2023-11-19T14:20:46;11.10;99.90
4366;DHT22;2196;47.422;9.656;2023-11-19T14:23:13;11.00;99.90
4366;DHT22;2196;47.422;9.656;2023-11-19T14:25:40;11.00;99.90
4366;DHT22;2196;47.422;9.656;2023-11-19T14:28:07;11.00;99.90
4366;DHT22;2196;47.422;9.656;2023-11-19T14:30:34;11.00;99.90
4366;DHT22;2196;47.422;9.656;2023-11-19T14:33:01;10.90;99.90
4366;DHT22;2196;47.422;9.656;2023-11-19T14:35:28;10.80;99.90
4366;DHT22;2196;47.422;9.656;2023-11-19T14:37:59;11.00;99.90
4366;DHT22;2196;47.422;9.656;2023-11-19T14:40:30;11.10;99.90
4366;DHT22;2196;47.422;9.656;2023-11-19T14:42:57;11.00;99.90
4366;DHT22;2196;47.422;9.656;2023-11-19T14:45:24;10.90;99.90
4366;DHT22;2196;47.422;9.656;2023-11-19T14:47:51;10.90;99.90
4366;DHT22;2196;47.422;9.656;2023-11-19T14:50:19;10.90;99.90
4366;DHT22;2196;47.422;9.656;2023-11-19T14:52:46;10.90;99.90
4366;DHT22;2196;47.422;9.656;2023-11-19T14:55:15;10.90;99.90
4366;DHT22;2196;47.422;9.656;2023-11-19T14:57:41;10.80;99.90
4366;DHT22;2196;47.422;9.656;2023-11-19T15:00:11;10.70;99.90
4366;DHT22;2196;47.422;9.656;2023-11-19T15:02:40;10.70;99.90
4366;DHT22;2196;47.422;9.656;2023-11-19T15:05:08;10.60;99.90
4366;DHT22;2196;47.422;9.656;2023-11-19T15:07:36;10.60;99.90
4366;DHT22;2196;47.422;9.656;2023-11-19T15:10:03;10.50;99.90
4366;DHT22;2196;47.422;9.656;2023-11-19T15:12:36;10.50;99.90
4366;DHT22;2196;47.422;9.656;2023-11-19T15:15:08;10.40;99.90
4366;DHT22;2196;47.422;9.656;2023-11-19T15:17:39;10.40;99.90
4366;DHT22;2196;47.422;9.656;2023-11-19T15:20:07;10.40;99.90
4366;DHT22;2196;47.422;9.656;2023-11-19T15:22:34;10.50;99.90
4366;DHT22;2196;47.422;9.656;2023-11-19T15:25:01;10.40;99.90
4366;DHT22;2196;47.422;9.656;2023-11-19T15:27:28;10.40;99.90
4366;DHT22;2196;47.422;9.656;2023-11-19T15:29:57;10.30;99.90
4366;DHT22;2196;47.422;9.656;2023-11-19T15:32:24;10.30;99.90
4366;DHT22;2196;47.422;9.656;2023-11-19T15:34:51;10.30;99.90
4366;DHT22;2196;47.422;9.656;2023-11-19T15:37:18;10.30;99.90
4366;DHT22;2196;47.422;9.656;2023-11-19T15:39:45;10.30;99.90
4366;DHT22;2196;47.422;9.656;2023-11-19T15:42:13;10.30;99.90
4366;DHT22;2196;47.422;9.656;2023-11-19T15:44:40;10.30;99.90
4366;DHT22;2196;47.422;9.656;2023-11-19T15:47:08;10.20;99.90
4366;DHT22;2196;47.422;9.656;2023-11-19T15:49:35;10.20;99.90
4366;DHT22;2196;47.422;9.656;2023-11-19T15:52:03;10.20;99.90
4366;DHT22;2196;47.422;9.656;2023-11-19T15:54:31;10.20;99.90
4366;DHT22;2196;47.422;9.656;2023-11-19T15:56:58;10.20;99.90
4366;DHT22;2196;47.422;9.656;2023-11-19T15:59:25;10.20;99.90
4366;DHT22;2196;47.422;9.656;2023-11-19T16:01:52;10.10;99.90
4366;DHT22;2196;47.422;9.656;2023-11-19T16:04:20;10.10;99.90
4366;DHT22;2196;47.422;9.656;2023-11-19T16:06:47;10.00;99.90
4366;DHT22;2196;47.422;9.656;2023-11-19T16:09:14;9.90;99.90
4366;DHT22;2196;47.422;9.656;2023-11-19T16:11:44;9.90;99.90
4366;DHT22;2196;47.422;9.656;2023-11-19T16:14:11;9.80;99.90
4366;DHT22;2196;47.422;9.656;2023-11-19T16:16:40;9.90;99.90
4366;DHT22;2196;47.422;9.656;2023-11-19T16:19:07;9.40;99.90
4366;DHT22;2196;47.422;9.656;2023-11-19T16:21:38;9.70;99.90
4366;DHT22;2196;47.422;9.656;2023-11-19T16:24:05;9.60;99.90
4366;DHT22;2196;47.422;9.656;2023-11-19T16:26:33;9.50;99.90
4366;DHT22;2196;47.422;9.656;2023-11-19T16:29:02;9.40;99.90
4366;DHT22;2196;47.422;9.656;2023-11-19T16:31:29;9.40;99.90
4366;DHT22;2196;47.422;9.656;2023-11-19T16:33:56;9.30;99.90